createdAt,value
2019-02-14T00:00:27.919Z,39.53
2019-02-14T00:02:58.203Z,40.30
2019-02-14T00:05:26.747Z,37.73
2019-02-14T00:07:56.161Z,36.30
2019-02-14T00:10:24.746Z,38.60
2019-02-14T00:12:54.245Z,32.47
2019-02-14T00:15:22.929Z,34.40
2019-02-14T00:17:51.638Z,38.27
2019-02-14T00:20:20.090Z,36.10
2019-02-14T00:22:48.574Z,36.20
2019-02-14T00:25:17.501Z,38.87
2019-02-14T00:27:46.157Z,36.90
2019-02-14T00:30:14.848Z,35.83
2019-02-14T00:32:43.526Z,36.13
2019-02-14T00:35:12.945Z,34.17
2019-02-14T00:37:41.510Z,34.30
2019-02-14T00:40:10.213Z,35.40
2019-02-14T00:42:38.573Z,32.13
2019-02-14T00:45:07.164Z,31.23
2019-02-14T00:47:35.868Z,29.63
2019-02-14T00:50:04.520Z,26.63
2019-02-14T00:52:33.206Z,28.60
2019-02-14T00:55:01.907Z,25.37
2019-02-14T00:57:33.799Z,25.70
2019-02-14T01:00:02.560Z,25.83
2019-02-14T01:02:32.261Z,26.53
2019-02-14T01:05:00.629Z,30.07
2019-02-14T01:07:29.246Z,26.33
2019-02-14T01:09:57.916Z,26.63
2019-02-14T01:12:26.778Z,31.03
2019-02-14T01:14:55.492Z,30.03
2019-02-14T01:17:24.876Z,32.23
2019-02-14T01:19:53.462Z,32.07
2019-02-14T01:22:22.163Z,30.67
2019-02-14T01:24:50.821Z,31.93
2019-02-14T01:27:19.502Z,28.40
2019-02-14T01:29:48.216Z,33.57
2019-02-14T01:32:16.888Z,32.40
2019-02-14T01:34:45.572Z,33.53
2019-02-14T01:37:14.576Z,29.33
2019-02-14T01:39:43.151Z,32.57
2019-02-14T01:42:11.839Z,31.43
2019-02-14T01:44:40.834Z,31.10
2019-02-14T01:47:09.402Z,30.13
2019-02-14T01:49:38.092Z,31.80
2019-02-14T01:52:06.806Z,29.90
2019-02-14T01:54:35.565Z,29.20
2019-02-14T01:57:04.142Z,25.97
2019-02-14T01:59:32.865Z,30.00
2019-02-14T02:02:01.717Z,28.33
2019-02-14T02:04:30.110Z,29.33
2019-02-14T02:06:58.706Z,30.43
2019-02-14T02:09:27.057Z,26.93
2019-02-14T02:11:55.339Z,28.27
2019-02-14T02:14:23.942Z,29.03
2019-02-14T02:16:52.627Z,26.30
2019-02-14T02:19:20.862Z,27.63
2019-02-14T02:21:49.765Z,27.70
2019-02-14T02:24:18.144Z,28.10
2019-02-14T02:26:46.744Z,29.20
2019-02-14T02:29:15.446Z,28.20
2019-02-14T02:31:44.106Z,29.87
2019-02-14T02:34:12.790Z,32.17
2019-02-14T02:36:41.506Z,29.70
2019-02-14T02:39:10.157Z,30.40
2019-02-14T02:41:38.844Z,30.40
2019-02-14T02:44:09.061Z,28.60
2019-02-14T02:46:38.053Z,32.63
2019-02-14T02:49:06.743Z,31.17
2019-02-14T02:51:35.453Z,30.23
2019-02-14T02:54:03.910Z,26.40
2019-02-14T02:56:32.604Z,29.57
2019-02-14T02:59:01.314Z,29.17
2019-02-14T03:01:29.671Z,27.53
2019-02-14T03:03:58.042Z,30.47
2019-02-14T03:06:26.545Z,29.03
2019-02-14T03:08:55.203Z,29.30
2019-02-14T03:11:23.897Z,27.50
2019-02-14T03:13:52.639Z,25.20
2019-02-14T03:16:20.843Z,27.57
2019-02-14T03:18:49.334Z,27.13
2019-02-14T03:21:17.956Z,32.13
2019-02-14T03:23:46.707Z,28.37
2019-02-14T03:26:15.393Z,27.80
2019-02-14T03:28:44.097Z,26.87
2019-02-14T03:31:12.786Z,26.13
2019-02-14T03:33:41.445Z,26.63
2019-02-14T03:36:18.608Z,25.37
2019-02-14T03:38:40.462Z,27.37
2019-02-14T03:41:09.144Z,28.00
2019-02-14T03:43:37.446Z,25.27
2019-02-14T03:46:06.115Z,26.80
2019-02-14T03:48:34.789Z,26.50
2019-02-14T03:51:03.512Z,26.03
2019-02-14T03:53:32.150Z,25.80
2019-02-14T03:56:00.856Z,25.30
2019-02-14T03:58:30.102Z,29.67
2019-02-14T04:00:58.328Z,26.90
2019-02-14T04:03:26.901Z,30.00
2019-02-14T04:05:55.617Z,29.50
2019-02-14T04:08:24.283Z,29.77
2019-02-14T04:10:53.361Z,32.07
2019-02-14T04:13:21.772Z,28.80
2019-02-14T04:15:50.326Z,30.10
2019-02-14T04:18:19.018Z,27.30
2019-02-14T04:20:47.718Z,29.37
2019-02-14T04:23:15.976Z,27.30
2019-02-14T04:25:44.676Z,27.43
2019-02-14T04:28:13.429Z,29.43
2019-02-14T04:30:42.034Z,28.17
2019-02-14T04:33:10.722Z,31.43
2019-02-14T04:35:39.430Z,30.87
2019-02-14T04:38:08.096Z,29.80
2019-02-14T04:40:36.366Z,27.63
2019-02-14T04:43:05.065Z,26.87
2019-02-14T04:45:33.733Z,28.53
2019-02-14T04:48:02.832Z,27.53
2019-02-14T04:50:31.864Z,28.03
2019-02-14T04:53:00.420Z,29.03
2019-02-14T04:55:29.092Z,27.83
2019-02-14T04:57:57.797Z,30.10
2019-02-14T05:00:26.178Z,31.07
2019-02-14T05:02:54.762Z,32.37
2019-02-14T05:05:23.554Z,30.60
2019-02-14T05:07:52.111Z,29.10
2019-02-14T05:10:20.801Z,35.10
2019-02-14T05:12:49.506Z,33.20
2019-02-14T05:15:18.170Z,29.90
2019-02-14T05:17:46.848Z,30.13
2019-02-14T05:20:15.333Z,28.80
2019-02-14T05:22:44.016Z,27.27
2019-02-14T05:25:12.283Z,29.47
2019-02-14T05:27:40.990Z,29.23
2019-02-14T05:30:10.698Z,30.43
2019-02-14T05:32:39.386Z,29.00
2019-02-14T05:35:08.471Z,31.07
2019-02-14T05:37:36.964Z,30.13
2019-02-14T05:40:06.872Z,48.60
2019-02-14T05:42:35.187Z,71.17
2019-02-14T05:45:03.977Z,50.87
2019-02-14T05:47:32.684Z,35.27
2019-02-14T05:50:01.238Z,30.37
2019-02-14T05:52:29.900Z,29.53
2019-02-14T05:54:58.381Z,27.50
2019-02-14T05:57:27.413Z,27.20
2019-02-14T05:59:56.172Z,30.17
2019-02-14T06:02:24.843Z,29.77
2019-02-14T06:04:54.274Z,26.97
2019-02-14T06:07:22.834Z,27.33
2019-02-14T06:09:51.289Z,29.20
2019-02-14T06:12:19.585Z,26.83
2019-02-14T06:14:48.257Z,28.13
2019-02-14T06:17:16.941Z,28.20
2019-02-14T06:19:45.686Z,28.47
2019-02-14T06:22:14.318Z,29.97
2019-02-14T06:24:43.018Z,29.87
2019-02-14T06:27:11.705Z,28.63
2019-02-14T06:29:39.954Z,27.20
2019-02-14T06:32:08.650Z,26.67
2019-02-14T06:34:37.369Z,28.20
2019-02-14T06:37:09.621Z,32.07
2019-02-14T06:39:37.404Z,29.60
2019-02-14T06:42:06.057Z,24.33
2019-02-14T06:44:34.339Z,31.20
2019-02-14T06:47:04.708Z,32.77
2019-02-14T06:49:33.053Z,39.27
2019-02-14T06:52:02.090Z,36.70
2019-02-14T06:54:30.423Z,35.10
2019-02-14T06:56:59.002Z,35.07
2019-02-14T06:59:27.677Z,31.23
2019-02-14T07:02:03.935Z,28.70
2019-02-14T07:04:47.906Z,34.30
2019-02-14T07:07:21.793Z,33.83
2019-02-14T07:10:12.875Z,32.30
2019-02-14T07:12:46.580Z,29.63
2019-02-14T07:15:22.704Z,32.30
2019-02-14T07:17:56.088Z,31.70
2019-02-14T07:20:30.117Z,31.37
2019-02-14T07:23:02.805Z,33.57
2019-02-14T07:25:37.333Z,34.47
2019-02-14T07:32:00.832Z,36.90
2019-02-14T07:34:35.032Z,32.77
2019-02-14T07:37:10.128Z,34.13
2019-02-14T07:39:47.889Z,32.93
2019-02-14T07:42:27.874Z,32.63
2019-02-14T07:45:07.491Z,34.13
2019-02-14T07:47:41.520Z,35.03
2019-02-14T07:50:22.701Z,32.90
2019-02-14T07:52:54.795Z,32.20
2019-02-14T07:55:32.150Z,35.23
2019-02-14T07:58:05.710Z,32.97
2019-02-14T08:00:41.499Z,34.20
2019-02-14T08:03:16.393Z,33.97
2019-02-14T08:06:11.840Z,33.40
2019-02-14T08:08:47.020Z,33.03
2019-02-14T08:11:21.685Z,34.47
2019-02-14T08:13:55.074Z,33.53
2019-02-14T08:16:35.649Z,32.63
2019-02-14T08:19:10.240Z,35.73
2019-02-14T08:21:49.705Z,33.87
2019-02-14T08:24:18.905Z,30.60
2019-02-14T08:26:55.736Z,32.90
2019-02-14T08:29:31.691Z,30.20
2019-02-14T08:32:09.074Z,29.17
2019-02-14T08:34:43.616Z,31.10
2019-02-14T08:37:19.218Z,30.20
2019-02-14T08:39:59.499Z,29.67
2019-02-14T08:42:33.032Z,26.63
2019-02-14T08:45:09.729Z,28.67
2019-02-14T08:47:42.646Z,27.00
2019-02-14T08:50:15.991Z,28.27
2019-02-14T08:52:50.733Z,29.27
2019-02-14T08:55:23.792Z,27.90
2019-02-14T08:58:09.406Z,27.20
2019-02-14T09:00:42.502Z,25.57
2019-02-14T09:03:33.829Z,26.10
2019-02-14T09:06:08.137Z,28.03
2019-02-14T09:08:50.500Z,26.47
2019-02-14T09:11:25.730Z,22.10
2019-02-14T09:13:59.605Z,22.87
2019-02-14T09:16:33.017Z,24.40
2019-02-14T09:19:37.779Z,23.47
2019-02-14T09:22:12.262Z,27.40
2019-02-14T09:24:41.137Z,26.70
2019-02-14T09:27:14.735Z,24.40
2019-02-14T09:30:22.294Z,35.70
2019-02-14T09:33:00.963Z,24.57
2019-02-14T09:35:38.560Z,24.57
2019-02-14T09:38:13.462Z,23.13
2019-02-14T09:40:47.743Z,23.83
2019-02-14T09:43:29.417Z,23.13
2019-02-14T09:45:54.920Z,22.63
2019-02-14T09:48:29.036Z,24.00
2019-02-14T09:51:02.364Z,23.60
2019-02-14T09:53:41.394Z,24.97
2019-02-14T09:56:13.605Z,30.03
2019-02-14T09:58:42.926Z,24.63
2019-02-14T10:01:16.091Z,40.97
2019-02-14T10:03:51.502Z,27.07
2019-02-14T10:06:26.508Z,29.37
2019-02-14T10:08:55.609Z,21.40
2019-02-14T10:11:44.720Z,21.90
2019-02-14T10:14:18.186Z,22.97
2019-02-14T10:17:09.053Z,22.60
2019-02-14T10:19:43.132Z,20.53
2019-02-14T10:22:24.537Z,32.93
2019-02-14T10:24:59.027Z,20.80
2019-02-14T10:27:58.900Z,37.93
2019-02-14T10:30:33.197Z,29.83
2019-02-14T10:33:08.523Z,27.40
2019-02-14T10:36:01.982Z,20.67
2019-02-14T10:38:39.167Z,18.50
2019-02-14T10:41:11.789Z,18.20
2019-02-14T10:43:49.148Z,20.10
2019-02-14T10:46:31.099Z,22.10
2019-02-14T10:49:06.584Z,16.10
2019-02-14T10:51:35.010Z,19.50
2019-02-14T10:54:03.692Z,19.97
2019-02-14T10:56:39.464Z,19.13
2019-02-14T10:59:14.819Z,19.47
2019-02-14T11:01:51.905Z,17.97
2019-02-14T11:04:27.846Z,16.67
2019-02-14T11:07:01.908Z,18.13
2019-02-14T11:09:37.067Z,17.03
2019-02-14T11:12:13.824Z,20.13
2019-02-14T11:14:52.277Z,18.90
2019-02-14T11:17:26.749Z,17.70
2019-02-14T11:20:07.410Z,16.03
2019-02-14T11:22:39.602Z,18.70
2019-02-14T11:25:28.199Z,24.23
2019-02-14T11:28:00.032Z,17.93
2019-02-14T11:30:48.192Z,18.13
2019-02-14T11:33:31.523Z,17.03
2019-02-14T11:36:00.632Z,19.17
2019-02-14T11:38:29.139Z,18.30
2019-02-14T11:41:05.877Z,16.07
2019-02-14T11:43:40.266Z,16.97
2019-02-14T11:46:29.690Z,18.37
2019-02-14T11:49:01.903Z,17.90
2019-02-14T11:51:35.640Z,16.43
2019-02-14T11:54:09.519Z,16.13
2019-02-14T11:56:58.122Z,16.07
2019-02-14T11:59:32.694Z,19.37
2019-02-14T12:02:21.093Z,16.37
2019-02-14T12:04:50.806Z,19.33
2019-02-14T12:07:26.429Z,19.07
2019-02-14T12:10:00.006Z,19.70
2019-02-14T12:12:55.747Z,19.57
2019-02-14T12:15:30.240Z,20.17
2019-02-14T12:18:11.721Z,15.23
2019-02-14T12:20:44.579Z,22.13
2019-02-14T12:23:25.363Z,22.93
2019-02-14T12:26:01.171Z,17.00
2019-02-14T12:28:33.477Z,17.57
2019-02-14T12:31:09.253Z,16.10
2019-02-14T12:33:48.685Z,16.90
2019-02-14T12:36:34.616Z,17.80
2019-02-14T12:39:11.865Z,17.00
2019-02-14T12:41:51.459Z,19.70
2019-02-14T12:44:23.956Z,18.50
2019-02-14T12:47:11.529Z,18.17
2019-02-14T12:49:43.224Z,17.77
2019-02-14T12:52:17.827Z,18.10
2019-02-14T12:54:57.494Z,20.07
2019-02-14T12:57:30.537Z,21.37
2019-02-14T12:59:59.798Z,21.27
2019-02-14T13:02:32.348Z,18.60
2019-02-14T13:05:15.543Z,17.60
2019-02-14T13:07:50.200Z,18.90
2019-02-14T13:10:27.348Z,16.83
2019-02-14T13:13:02.051Z,18.03
2019-02-14T13:15:38.331Z,18.23
2019-02-14T13:18:11.853Z,17.23
2019-02-14T13:21:01.521Z,17.67
2019-02-14T13:23:38.510Z,16.23
2019-02-14T13:26:22.295Z,20.20
2019-02-14T13:28:55.032Z,16.37
2019-02-14T13:31:33.639Z,16.37
2019-02-14T13:34:12.367Z,17.90
2019-02-14T13:36:50.385Z,17.73
2019-02-14T13:39:29.374Z,17.70
2019-02-14T13:42:11.099Z,16.63
2019-02-14T13:44:50.038Z,17.60
2019-02-14T13:47:28.224Z,17.70
2019-02-14T13:50:00.512Z,16.70
2019-02-14T13:52:40.958Z,17.73
2019-02-14T13:55:15.985Z,17.60
2019-02-14T13:57:49.582Z,17.33
2019-02-14T14:00:25.467Z,16.43
2019-02-14T14:03:04.410Z,15.10
2019-02-14T14:05:43.272Z,13.67
2019-02-14T14:08:30.860Z,18.87
2019-02-14T14:11:04.001Z,15.90
2019-02-14T14:13:37.118Z,14.83
2019-02-14T14:16:10.769Z,15.53
2019-02-14T14:18:45.587Z,16.10
2019-02-14T14:21:20.727Z,14.20
2019-02-14T14:23:55.952Z,15.67
2019-02-14T14:26:29.779Z,18.90
2019-02-14T14:29:03.691Z,14.50
2019-02-14T14:31:32.709Z,17.80
2019-02-14T14:34:01.152Z,14.93
2019-02-14T14:36:40.546Z,16.03
2019-02-14T14:39:12.871Z,15.40
2019-02-14T14:41:50.102Z,14.97
2019-02-14T14:44:38.936Z,14.43
2019-02-14T14:47:25.628Z,15.63
2019-02-14T14:50:09.848Z,17.33
2019-02-14T14:52:44.257Z,15.73
2019-02-14T14:55:28.099Z,15.70
2019-02-14T14:57:59.741Z,14.47
2019-02-14T15:00:51.059Z,17.50
2019-02-14T15:03:24.395Z,16.97
2019-02-14T15:05:57.582Z,13.70
2019-02-14T15:08:31.364Z,15.67
2019-02-14T15:11:09.323Z,16.53
2019-02-14T15:13:42.010Z,17.23
2019-02-14T15:16:35.703Z,16.30
2019-02-14T15:19:08.865Z,14.20
2019-02-14T15:21:44.982Z,17.40
2019-02-14T15:24:18.289Z,14.87
2019-02-14T15:26:50.770Z,16.80
2019-02-14T15:29:26.738Z,15.33
2019-02-14T15:32:00.828Z,18.70
2019-02-14T15:34:35.238Z,18.17
2019-02-14T15:37:08.724Z,16.80
2019-02-14T15:40:22.528Z,17.50
2019-02-14T15:42:55.481Z,17.63
2019-02-14T15:45:42.487Z,19.60
2019-02-14T15:48:15.407Z,17.23
2019-02-14T15:51:02.097Z,16.43
2019-02-14T15:53:36.162Z,18.90
2019-02-14T15:56:15.804Z,18.73
2019-02-14T15:58:48.983Z,17.00
2019-02-14T16:01:30.151Z,20.20
2019-02-14T16:04:03.290Z,17.70
2019-02-14T16:06:47.690Z,18.33
2019-02-14T16:09:16.694Z,16.87
2019-02-14T16:12:05.174Z,18.53
2019-02-14T16:14:40.577Z,18.50
2019-02-14T16:17:14.831Z,19.77
2019-02-14T16:19:47.181Z,19.07
2019-02-14T16:22:29.998Z,19.33
2019-02-14T16:24:59.067Z,17.77
2019-02-14T16:27:50.786Z,19.87
2019-02-14T16:30:22.971Z,17.10
2019-02-14T16:32:57.912Z,19.70
2019-02-14T16:35:33.362Z,20.27
2019-02-14T16:38:11.862Z,20.50
2019-02-14T16:40:48.062Z,20.27
2019-02-14T16:43:18.761Z,21.67
2019-02-14T16:45:56.970Z,21.33
2019-02-14T16:48:34.858Z,21.30
2019-02-14T16:51:31.057Z,20.77
2019-02-14T16:54:04.723Z,21.00
2019-02-14T16:56:42.285Z,25.30
2019-02-14T16:59:16.958Z,21.67
2019-02-14T17:01:49.326Z,20.60
2019-02-14T17:04:23.495Z,22.10
2019-02-14T17:07:00.442Z,21.00
2019-02-14T17:09:33.739Z,34.13
2019-02-14T17:12:09.755Z,30.37
2019-02-14T17:14:44.546Z,32.20
2019-02-14T17:17:27.679Z,25.10
2019-02-14T17:19:56.134Z,26.20
2019-02-14T17:22:39.574Z,31.63
2019-02-14T17:25:13.082Z,27.97
2019-02-14T17:28:03.279Z,27.73
2019-02-14T17:30:37.567Z,28.53
2019-02-14T17:33:12.423Z,34.37
2019-02-14T17:35:44.359Z,42.27
2019-02-14T17:38:17.440Z,37.97
2019-02-14T17:41:05.795Z,36.67
2019-02-14T17:43:40.277Z,27.17
2019-02-14T17:46:16.609Z,26.17
2019-02-14T17:48:45.743Z,27.87
2019-02-14T17:51:18.028Z,33.43
2019-02-14T17:53:51.633Z,29.43
2019-02-14T17:56:24.369Z,34.43
2019-02-14T17:59:02.173Z,27.17
2019-02-14T18:05:30.149Z,24.07
2019-02-14T18:08:03.594Z,21.77
2019-02-14T18:10:36.418Z,20.90
2019-02-14T18:13:40.483Z,24.87
2019-02-14T18:16:13.484Z,21.70
2019-02-14T18:18:48.191Z,23.90
2019-02-14T18:21:23.432Z,21.53
2019-02-14T18:24:15.676Z,19.23
2019-02-14T18:26:51.279Z,24.93
2019-02-14T18:29:27.380Z,22.53
2019-02-14T18:32:01.501Z,23.77
2019-02-14T18:34:33.865Z,21.57
2019-02-14T18:37:05.857Z,22.43
2019-02-14T18:39:38.747Z,22.20
2019-02-14T18:42:11.186Z,22.90
2019-02-14T18:44:47.308Z,24.40
2019-02-14T18:47:20.355Z,22.80
2019-02-14T18:49:57.700Z,25.20
2019-02-14T18:52:27.229Z,26.03
2019-02-14T18:54:59.604Z,24.83
2019-02-14T18:57:36.134Z,31.87
2019-02-14T19:00:11.048Z,26.73
2019-02-14T19:02:48.471Z,30.33
2019-02-14T19:05:22.378Z,31.77
2019-02-14T19:07:55.026Z,30.13
2019-02-14T19:10:39.194Z,27.33
2019-02-14T19:13:14.025Z,29.67
2019-02-14T19:15:49.372Z,29.27
2019-02-14T19:18:24.241Z,33.17
2019-02-14T19:21:02.180Z,35.47
2019-02-14T19:23:36.083Z,33.30
2019-02-14T19:26:04.635Z,32.23
2019-02-14T19:28:34.331Z,32.83
2019-02-14T19:31:24.525Z,28.60
2019-02-14T19:33:56.357Z,30.70
2019-02-14T19:36:30.750Z,33.60
2019-02-14T19:39:13.353Z,29.37
2019-02-14T19:41:49.521Z,28.30
2019-02-14T19:44:23.714Z,27.73
2019-02-14T19:46:59.137Z,27.43
2019-02-14T19:49:37.778Z,33.10
2019-02-14T19:52:12.386Z,35.00
2019-02-14T19:54:46.626Z,37.40
2019-02-14T19:57:24.075Z,37.27
2019-02-14T20:00:00.290Z,38.70
2019-02-14T20:02:37.486Z,37.93
2019-02-14T20:05:17.797Z,39.00
2019-02-14T20:07:54.122Z,36.37
2019-02-14T20:10:34.263Z,37.90
2019-02-14T20:13:07.738Z,33.90
2019-02-14T20:15:40.602Z,35.90
2019-02-14T20:18:14.113Z,31.20
2019-02-14T20:20:47.935Z,32.47
2019-02-14T20:23:21.003Z,31.83
2019-02-14T20:25:53.458Z,31.77
2019-02-14T20:28:26.700Z,34.30
2019-02-14T20:31:01.816Z,35.47
2019-02-14T20:33:37.569Z,42.00
2019-02-14T20:36:10.312Z,46.10
2019-02-14T20:38:46.642Z,65.33
2019-02-14T20:41:20.244Z,63.53
2019-02-14T20:43:49.102Z,67.27
2019-02-14T20:46:19.493Z,51.87
2019-02-14T20:48:48.091Z,48.70
2019-02-14T20:51:16.615Z,49.47
2019-02-14T20:53:45.388Z,51.90
2019-02-14T20:56:13.634Z,46.60
2019-02-14T20:58:42.134Z,47.10
2019-02-14T21:01:12.041Z,49.33
2019-02-14T21:03:40.722Z,45.83
2019-02-14T21:06:09.639Z,45.83
2019-02-14T21:08:38.292Z,43.27
2019-02-14T21:11:06.765Z,44.47
2019-02-14T21:13:35.487Z,44.93
2019-02-14T21:16:04.553Z,43.10
2019-02-14T21:18:33.065Z,43.40
2019-02-14T21:21:01.742Z,42.73
2019-02-14T21:23:30.406Z,60.17
2019-02-14T21:26:00.324Z,59.50
2019-02-14T21:28:29.775Z,60.50
2019-02-14T21:30:58.502Z,59.13
2019-02-14T21:33:26.777Z,59.93
2019-02-14T21:35:55.490Z,49.60
2019-02-14T21:38:24.200Z,48.03
2019-02-14T21:40:52.539Z,43.83
2019-02-14T21:43:21.033Z,44.00
2019-02-14T21:45:49.605Z,39.07
2019-02-14T21:48:18.297Z,41.03
2019-02-14T21:50:46.802Z,44.40
2019-02-14T21:53:15.443Z,45.60
2019-02-14T21:55:44.361Z,38.67
2019-02-14T21:58:13.075Z,43.10
2019-02-14T22:00:41.696Z,42.70
2019-02-14T22:03:10.095Z,45.23
2019-02-14T22:05:38.711Z,45.60
2019-02-14T22:08:07.566Z,45.10
2019-02-14T22:10:36.078Z,46.37
2019-02-14T22:13:04.577Z,53.63
2019-02-14T22:15:33.428Z,51.43
2019-02-14T22:18:02.511Z,51.23
2019-02-14T22:20:31.028Z,55.23
2019-02-14T22:23:04.991Z,49.30
2019-02-14T22:25:33.752Z,55.03
2019-02-14T22:28:02.266Z,55.00
2019-02-14T22:30:31.038Z,49.47
2019-02-14T22:32:59.735Z,56.43
2019-02-14T22:35:28.418Z,48.47
2019-02-14T22:37:56.708Z,46.60
2019-02-14T22:40:25.400Z,46.03
2019-02-14T22:42:54.053Z,52.87
2019-02-14T22:45:22.535Z,45.10
2019-02-14T22:47:51.359Z,40.47
2019-02-14T22:50:19.904Z,45.97
2019-02-14T22:52:48.279Z,39.33
2019-02-14T22:55:16.885Z,41.50
2019-02-14T22:57:45.565Z,45.97
2019-02-14T23:00:30.146Z,44.33
2019-02-14T23:03:01.357Z,43.13
2019-02-14T23:05:30.053Z,43.23
2019-02-14T23:07:58.558Z,44.37
2019-02-14T23:10:27.193Z,41.53
2019-02-14T23:12:56.294Z,41.23
2019-02-14T23:15:24.686Z,42.07
2019-02-14T23:17:53.276Z,43.90
2019-02-14T23:20:21.995Z,41.53
2019-02-14T23:22:50.647Z,45.33
2019-02-14T23:25:19.519Z,44.30
2019-02-14T23:27:48.385Z,45.17
2019-02-14T23:30:16.673Z,47.73
2019-02-14T23:32:45.362Z,45.43
2019-02-14T23:35:13.881Z,47.27
2019-02-14T23:37:42.720Z,42.57
2019-02-14T23:40:12.143Z,45.67
2019-02-14T23:42:40.967Z,42.80
2019-02-14T23:45:09.645Z,43.73
2019-02-14T23:47:37.987Z,43.83
2019-02-14T23:50:07.650Z,42.53
2019-02-14T23:52:36.095Z,42.57
2019-02-14T23:55:04.678Z,38.30
2019-02-14T23:57:33.478Z,39.93
